Time;durP1;ratioP1;P1;durP2;ratioP2;P2;SDS_P1;SDS_P2;PMS_P1;PMS_P2;Temp;Humidity;BMP_temperature;BMP_pressure;BME280_temperature;BME280_humidity;BME280_pressure;Samples;Min_cycle;Max_cycle;Signal;HPM_P1;HPM_P2
2022/10/19 00:01:55;;;;;;;;;;;14.40;71.20;;;;;;5019276;28;20358;-80
2022/10/19 00:04:21;;;;;;;;;;;14.30;71.10;;;;;;5019360;28;19921;-81
2022/10/19 00:06:46;;;;;;;;;;;14.30;71.20;;;;;;5035644;28;19964;-80
2022/10/19 00:09:13;;;;;;;;;;;14.30;71.20;;;;;;5035556;28;19924;-80
2022/10/19 00:11:40;;;;;;;;;;;14.30;71.20;;;;;;5035578;28;20004;-81
2022/10/19 00:14:06;;;;;;;;;;;14.30;71.20;;;;;;5036740;28;19922;-81
2022/10/19 00:16:33;;;;;;;;;;;14.20;71.20;;;;;;5035913;28;19917;-81
2022/10/19 00:19:00;;;;;;;;;;;14.20;71.20;;;;;;5035096;28;19917;-81
2022/10/19 00:21:26;;;;;;;;;;;14.20;71.20;;;;;;5051867;28;20008;-81
2022/10/19 00:23:52;;;;;;;;;;;14.20;71.20;;;;;;5035988;28;19921;-82
2022/10/19 00:26:17;;;;;;;;;;;14.10;71.20;;;;;;5035481;28;19913;-83
2022/10/19 00:28:43;;;;;;;;;;;14.10;71.20;;;;;;5018968;28;20278;-81
2022/10/19 00:31:10;;;;;;;;;;;14.10;71.20;;;;;;5035139;28;19917;-81
2022/10/19 00:33:36;;;;;;;;;;;14.10;71.20;;;;;;5017354;28;19913;-80
2022/10/19 00:36:02;;;;;;;;;;;14.10;71.20;;;;;;5036390;28;19955;-81
2022/10/19 00:38:28;;;;;;;;;;;14.10;71.30;;;;;;5034869;28;19913;-81
2022/10/19 00:40:53;;;;;;;;;;;14.00;71.20;;;;;;5034592;28;19932;-82
2022/10/19 00:43:24;;;;;;;;;;;14.00;71.20;;;;;;5035665;28;19928;-81
2022/10/19 00:45:50;;;;;;;;;;;14.00;71.20;;;;;;5035218;28;20350;-81
2022/10/19 00:48:18;;;;;;;;;;;14.00;71.30;;;;;;5018246;28;19920;-80
2022/10/19 00:50:44;;;;;;;;;;;14.00;71.30;;;;;;5034605;28;19913;-80
2022/10/19 00:53:10;;;;;;;;;;;13.90;71.30;;;;;;5017891;28;19909;-81
2022/10/19 00:55:37;;;;;;;;;;;13.90;71.30;;;;;;5034900;28;19913;-82
2022/10/19 00:58:02;;;;;;;;;;;13.90;71.30;;;;;;5017950;28;19913;-80
2022/10/19 01:00:28;;;;;;;;;;;13.90;71.30;;;;;;5018183;28;19966;-81
2022/10/19 01:02:54;;;;;;;;;;;13.90;71.30;;;;;;5018123;28;20385;-80
2022/10/19 01:05:21;;;;;;;;;;;13.90;71.30;;;;;;5034460;28;19917;-81
2022/10/19 01:07:46;;;;;;;;;;;13.90;71.30;;;;;;5017352;28;19910;-81
2022/10/19 01:10:12;;;;;;;;;;;13.80;71.30;;;;;;5034507;28;19967;-81
2022/10/19 01:12:38;;;;;;;;;;;13.80;71.30;;;;;;5017847;28;19963;-81
2022/10/19 01:15:03;;;;;;;;;;;13.80;71.30;;;;;;5034225;28;19963;-81
2022/10/19 01:17:32;;;;;;;;;;;13.80;71.30;;;;;;5034177;28;19984;-81
2022/10/19 01:20:16;;;;;;;;;;;13.80;71.30;;;;;;5034080;28;19914;-81
2022/10/19 01:22:45;;;;;;;;;;;13.70;71.30;;;;;;5050765;28;19917;-81
2022/10/19 01:25:20;;;;;;;;;;;13.70;71.30;;;;;;5034004;28;20419;-81
2022/10/19 01:27:49;;;;;;;;;;;13.70;71.30;;;;;;5051151;28;20011;-81
2022/10/19 01:30:15;;;;;;;;;;;13.70;71.30;;;;;;5034342;28;19909;-82
2022/10/19 01:32:40;;;;;;;;;;;13.70;71.40;;;;;;5034022;28;20055;-81
2022/10/19 01:35:09;;;;;;;;;;;13.60;71.30;;;;;;5050733;28;20011;-83
2022/10/19 01:37:40;;;;;;;;;;;13.70;71.40;;;;;;5034052;28;19917;-81
2022/10/19 01:40:18;;;;;;;;;;;13.60;71.30;;;;;;5050913;28;19920;-80
2022/10/19 01:42:45;;;;;;;;;;;13.60;71.30;;;;;;5035966;28;19928;-82
2022/10/19 01:45:30;;;;;;;;;;;13.60;71.30;;;;;;5033466;28;20288;-81
2022/10/19 01:48:02;;;;;;;;;;;13.50;71.30;;;;;;5034910;28;20016;-82
2022/10/19 01:50:36;;;;;;;;;;;13.50;71.30;;;;;;5033495;28;19975;-82
2022/10/19 01:53:03;;;;;;;;;;;13.50;71.40;;;;;;5034200;28;19918;-83
2022/10/19 01:55:30;;;;;;;;;;;13.50;71.40;;;;;;5033436;28;19963;-79
2022/10/19 01:57:58;;;;;;;;;;;13.50;71.40;;;;;;5050150;28;19917;-82
2022/10/19 02:00:24;;;;;;;;;;;13.50;71.40;;;;;;5033219;28;19909;-82
2022/10/19 02:02:52;;;;;;;;;;;13.40;71.30;;;;;;5033348;28;19978;-82
2022/10/19 02:05:20;;;;;;;;;;;13.40;71.40;;;;;;5033386;28;20395;-82
2022/10/19 02:07:48;;;;;;;;;;;13.40;71.30;;;;;;5049873;28;20354;-82
2022/10/19 02:10:14;;;;;;;;;;;13.40;71.40;;;;;;5034125;28;20004;-83
2022/10/19 02:12:40;;;;;;;;;;;13.40;71.40;;;;;;5032795;28;19956;-82
2022/10/19 02:15:09;;;;;;;;;;;13.30;71.30;;;;;;5033034;28;19959;-83
2022/10/19 02:17:42;;;;;;;;;;;13.30;71.30;;;;;;5034141;28;20286;-83
2022/10/19 02:20:08;;;;;;;;;;;13.30;71.30;;;;;;5033057;28;20012;-82
2022/10/19 02:22:34;;;;;;;;;;;13.30;71.40;;;;;;5032876;28;19949;-82
2022/10/19 02:25:00;;;;;;;;;;;13.30;71.40;;;;;;5032715;28;19917;-82
2022/10/19 02:27:26;;;;;;;;;;;13.30;71.40;;;;;;5016566;28;19967;-82
2022/10/19 02:29:52;;;;;;;;;;;13.20;71.30;;;;;;5032877;28;19913;-82
2022/10/19 02:32:18;;;;;;;;;;;13.20;71.30;;;;;;5033007;28;19914;-81
2022/10/19 02:34:43;;;;;;;;;;;13.20;71.30;;;;;;5032536;28;19913;-82
2022/10/19 02:37:09;;;;;;;;;;;13.20;72.00;;;;;;5016266;28;20293;-82
2022/10/19 02:39:36;;;;;;;;;;;13.20;71.40;;;;;;5016301;28;20328;-81
2022/10/19 02:42:13;;;;;;;;;;;13.20;71.40;;;;;;5032404;28;19921;-82
2022/10/19 02:44:46;;;;;;;;;;;13.10;71.30;;;;;;5033509;28;19921;-82
2022/10/19 02:47:14;;;;;;;;;;;13.10;71.30;;;;;;5049839;28;21469;-81
2022/10/19 02:49:41;;;;;;;;;;;13.10;71.30;;;;;;5033783;28;19917;-82
2022/10/19 02:52:08;;;;;;;;;;;13.10;71.30;;;;;;5033020;28;19912;-82
2022/10/19 02:54:34;;;;;;;;;;;13.10;71.40;;;;;;5033086;28;19913;-82
2022/10/19 02:56:59;;;;;;;;;;;13.00;71.30;;;;;;5017672;28;19924;-82
2022/10/19 02:59:25;;;;;;;;;;;13.00;71.30;;;;;;5036453;28;20324;-82
2022/10/19 03:01:51;;;;;;;;;;;13.00;71.30;;;;;;5037221;28;19917;-82
2022/10/19 03:04:16;;;;;;;;;;;13.00;71.30;;;;;;5020141;28;20380;-81
2022/10/19 03:06:42;;;;;;;;;;;13.00;71.30;;;;;;5036383;28;19959;-82
2022/10/19 03:09:08;;;;;;;;;;;12.90;71.30;;;;;;5037958;28;19913;-81
2022/10/19 03:11:34;;;;;;;;;;;12.90;71.30;;;;;;5037604;28;19909;-82
2022/10/19 03:13:59;;;;;;;;;;;12.90;71.30;;;;;;5036487;28;20012;-82
2022/10/19 03:16:25;;;;;;;;;;;12.90;71.30;;;;;;5036411;28;20329;-81
2022/10/19 03:18:51;;;;;;;;;;;12.90;71.30;;;;;;5036417;28;19971;-82
2022/10/19 03:21:16;;;;;;;;;;;12.80;71.20;;;;;;5053663;28;19913;-82
2022/10/19 03:23:42;;;;;;;;;;;12.80;71.30;;;;;;5036472;28;19921;-82
2022/10/19 03:26:11;;;;;;;;;;;12.80;71.30;;;;;;5019726;28;19913;-82
2022/10/19 03:28:36;;;;;;;;;;;12.80;71.30;;;;;;5052464;28;19916;-82
2022/10/19 03:31:02;;;;;;;;;;;12.80;71.30;;;;;;5036035;28;19929;-81
2022/10/19 03:33:27;;;;;;;;;;;12.70;71.20;;;;;;5036035;28;20281;-82
2022/10/19 03:36:13;;;;;;;;;;;12.70;71.20;;;;;;5020131;28;20358;-82
2022/10/19 03:38:39;;;;;;;;;;;12.70;71.20;;;;;;5036194;28;19917;-81
2022/10/19 03:41:05;;;;;;;;;;;12.70;71.30;;;;;;5035637;28;19916;-81
2022/10/19 03:43:31;;;;;;;;;;;12.70;71.30;;;;;;5019367;28;20337;-81
2022/10/19 03:45:56;;;;;;;;;;;12.70;71.30;;;;;;5036180;28;19918;-82
2022/10/19 03:48:22;;;;;;;;;;;12.60;71.20;;;;;;5036933;28;19918;-82
2022/10/19 03:50:47;;;;;;;;;;;12.60;71.20;;;;;;5035802;28;19914;-82
2022/10/19 03:53:13;;;;;;;;;;;12.60;71.20;;;;;;5036115;28;19924;-82
2022/10/19 03:55:39;;;;;;;;;;;12.50;71.20;;;;;;5036853;28;19917;-82
2022/10/19 03:58:05;;;;;;;;;;;12.60;71.30;;;;;;5019508;28;19944;-82
2022/10/19 04:00:30;;;;;;;;;;;12.50;71.20;;;;;;5019477;28;20468;-82
2022/10/19 04:02:56;;;;;;;;;;;12.50;71.20;;;;;;5035695;28;19986;-82
2022/10/19 04:05:21;;;;;;;;;;;12.50;71.30;;;;;;5035496;28;20367;-82
2022/10/19 04:07:47;;;;;;;;;;;12.40;71.20;;;;;;5018584;28;19917;-81
2022/10/19 04:10:12;;;;;;;;;;;12.40;71.20;;;;;;5035900;28;19913;-82
2022/10/19 04:12:38;;;;;;;;;;;12.40;71.20;;;;;;5019239;28;19973;-82
2022/10/19 04:15:04;;;;;;;;;;;12.40;71.20;;;;;;5035891;28;19909;-82
2022/10/19 04:17:29;;;;;;;;;;;12.40;71.20;;;;;;5035303;28;20456;-82
2022/10/19 04:19:55;;;;;;;;;;;12.40;71.30;;;;;;5036320;28;19967;-83
2022/10/19 04:22:21;;;;;;;;;;;12.40;71.30;;;;;;5036471;28;19925;-82
2022/10/19 04:24:46;;;;;;;;;;;12.40;71.30;;;;;;5018621;28;19921;-82
2022/10/19 04:27:12;;;;;;;;;;;12.30;71.20;;;;;;5018795;28;20015;-81
2022/10/19 04:29:37;;;;;;;;;;;12.30;71.20;;;;;;5018521;28;19913;-81
2022/10/19 04:32:03;;;;;;;;;;;12.30;71.30;;;;;;5034835;28;20370;-82
2022/10/19 04:34:28;;;;;;;;;;;12.30;71.30;;;;;;5051243;28;19924;-81
2022/10/19 04:36:58;;;;;;;;;;;12.30;71.30;;;;;;5034329;28;19917;-80
2022/10/19 04:39:23;;;;;;;;;;;12.30;71.30;;;;;;5018248;28;19920;-80
2022/10/19 04:41:49;;;;;;;;;;;12.30;71.30;;;;;;5034352;28;19929;-81
2022/10/19 04:44:14;;;;;;;;;;;12.20;71.30;;;;;;5018293;28;20345;-81
2022/10/19 04:46:40;;;;;;;;;;;12.20;71.20;;;;;;5017936;28;19921;-81
2022/10/19 04:49:06;;;;;;;;;;;12.20;71.30;;;;;;5034256;28;20350;-81
2022/10/19 04:51:31;;;;;;;;;;;12.20;71.30;;;;;;5018823;28;19917;-82
2022/10/19 04:53:57;;;;;;;;;;;12.20;71.30;;;;;;5034570;28;19909;-81
2022/10/19 04:56:25;;;;;;;;;;;12.10;71.30;;;;;;5018158;28;20346;-82
2022/10/19 04:58:52;;;;;;;;;;;12.10;71.30;;;;;;5034288;28;19916;-81
2022/10/19 05:01:19;;;;;;;;;;;12.10;71.30;;;;;;5034354;28;20400;-80
2022/10/19 05:03:45;;;;;;;;;;;12.10;71.30;;;;;;5033944;28;19945;-80
2022/10/19 05:06:11;;;;;;;;;;;12.10;71.30;;;;;;5017531;28;19921;-80
2022/10/19 05:08:37;;;;;;;;;;;12.00;71.30;;;;;;5034271;28;20296;-80
2022/10/19 05:11:07;;;;;;;;;;;12.00;71.30;;;;;;5034311;28;19913;-80
2022/10/19 05:13:33;;;;;;;;;;;12.00;71.30;;;;;;5033884;28;19913;-80
2022/10/19 05:16:00;;;;;;;;;;;12.00;71.30;;;;;;5033812;28;19912;-80
2022/10/19 05:18:26;;;;;;;;;;;12.00;71.30;;;;;;5033340;28;19909;-82
2022/10/19 05:20:59;;;;;;;;;;;12.00;71.30;;;;;;5033232;28;19905;-82
2022/10/19 05:23:24;;;;;;;;;;;12.00;71.30;;;;;;5032950;28;19921;-81
2022/10/19 05:25:57;;;;;;;;;;;11.90;71.20;;;;;;5016860;28;19913;-81
2022/10/19 05:28:22;;;;;;;;;;;11.90;71.20;;;;;;5050557;28;19913;-82
2022/10/19 05:30:48;;;;;;;;;;;11.90;71.20;;;;;;5033668;28;19932;-81
2022/10/19 05:33:14;;;;;;;;;;;11.90;71.20;;;;;;5033306;28;19947;-81
2022/10/19 05:35:39;;;;;;;;;;;11.90;71.20;;;;;;5033781;28;19961;-81
2022/10/19 05:38:05;;;;;;;;;;;11.80;71.20;;;;;;5035029;28;19917;-81
2022/10/19 05:40:30;;;;;;;;;;;11.80;71.20;;;;;;5017035;28;19913;-81
2022/10/19 05:42:56;;;;;;;;;;;11.80;71.20;;;;;;5033187;28;19926;-81
2022/10/19 05:45:22;;;;;;;;;;;11.80;71.20;;;;;;5033348;28;20023;-81
2022/10/19 05:47:47;;;;;;;;;;;11.80;71.20;;;;;;5034033;28;19920;-81
2022/10/19 05:50:13;;;;;;;;;;;11.80;71.20;;;;;;5017608;28;19929;-81
2022/10/19 05:52:38;;;;;;;;;;;11.80;71.20;;;;;;5034201;28;19921;-81
2022/10/19 05:55:04;;;;;;;;;;;11.70;71.20;;;;;;5033730;28;20385;-81
2022/10/19 05:57:30;;;;;;;;;;;11.70;71.20;;;;;;5033819;28;19917;-81
2022/10/19 05:59:57;;;;;;;;;;;11.70;71.20;;;;;;5034280;28;19921;-81
2022/10/19 06:02:23;;;;;;;;;;;11.70;71.90;;;;;;5050467;28;19963;-82
2022/10/19 06:04:49;;;;;;;;;;;11.70;71.20;;;;;;5033853;28;19922;-83
2022/10/19 06:07:14;;;;;;;;;;;11.70;71.20;;;;;;5033573;28;19913;-83
2022/10/19 06:09:40;;;;;;;;;;;11.60;71.20;;;;;;5033447;28;19979;-82
2022/10/19 06:12:06;;;;;;;;;;;11.60;71.20;;;;;;5049839;28;19913;-82
2022/10/19 06:14:31;;;;;;;;;;;11.70;71.30;;;;;;5033437;28;19944;-83
2022/10/19 06:16:57;;;;;;;;;;;11.60;71.20;;;;;;5033335;28;19917;-82
2022/10/19 06:19:22;;;;;;;;;;;11.60;71.30;;;;;;5016590;28;19917;-82
2022/10/19 06:21:48;;;;;;;;;;;11.60;71.30;;;;;;5016281;28;19920;-83
2022/10/19 06:24:14;;;;;;;;;;;11.60;71.30;;;;;;5017500;28;19921;-83
2022/10/19 06:26:39;;;;;;;;;;;11.60;71.30;;;;;;5033548;28;19956;-83
2022/10/19 06:29:05;;;;;;;;;;;11.60;71.30;;;;;;5033097;28;19920;-83
2022/10/19 06:31:32;;;;;;;;;;;11.50;71.30;;;;;;5032872;28;20286;-84
2022/10/19 06:33:58;;;;;;;;;;;11.50;71.30;;;;;;5033221;28;19964;-82
2022/10/19 06:36:25;;;;;;;;;;;11.50;71.30;;;;;;5032747;28;20351;-82
2022/10/19 06:38:52;;;;;;;;;;;11.50;71.30;;;;;;5049490;28;20007;-83
2022/10/19 06:41:17;;;;;;;;;;;11.50;71.30;;;;;;5033028;28;19913;-82
2022/10/19 06:43:47;;;;;;;;;;;11.50;71.40;;;;;;5033145;28;19928;-82
2022/10/19 06:46:16;;;;;;;;;;;11.50;71.40;;;;;;5033732;28;19940;-82
2022/10/19 06:48:42;;;;;;;;;;;11.50;71.40;;;;;;5033795;28;19963;-82
2022/10/19 06:51:07;;;;;;;;;;;11.50;71.40;;;;;;5016343;28;19913;-82
2022/10/19 06:53:34;;;;;;;;;;;11.50;71.40;;;;;;5033111;28;20000;-83
2022/10/19 06:56:00;;;;;;;;;;;11.50;71.40;;;;;;5016359;28;19957;-83
2022/10/19 06:58:26;;;;;;;;;;;11.50;71.40;;;;;;5032918;28;19920;-83
2022/10/19 07:00:58;;;;;;;;;;;11.50;71.40;;;;;;5032578;28;19909;-84
2022/10/19 07:03:25;;;;;;;;;;;11.50;71.40;;;;;;5032761;28;19918;-84
2022/10/19 07:05:58;;;;;;;;;;;11.50;71.50;;;;;;5033964;28;19905;-83
2022/10/19 07:08:24;;;;;;;;;;;11.50;71.50;;;;;;5033062;28;19936;-83
2022/10/19 07:10:50;;;;;;;;;;;11.50;71.50;;;;;;5016258;28;19920;-83
2022/10/19 07:13:16;;;;;;;;;;;11.50;71.50;;;;;;5016601;28;19975;-83
2022/10/19 07:15:42;;;;;;;;;;;11.50;71.50;;;;;;5032352;28;19913;-82
2022/10/19 07:18:07;;;;;;;;;;;11.40;71.50;;;;;;5032270;28;20012;-83
2022/10/19 07:20:33;;;;;;;;;;;11.50;71.50;;;;;;5015849;28;19952;-83
2022/10/19 07:22:59;;;;;;;;;;;11.50;71.50;;;;;;5016542;28;19921;-83
2022/10/19 07:25:25;;;;;;;;;;;11.50;71.60;;;;;;5032417;28;20306;-82
2022/10/19 07:27:51;;;;;;;;;;;11.50;71.60;;;;;;5032664;28;19941;-82
2022/10/19 07:30:16;;;;;;;;;;;11.50;71.60;;;;;;5032362;28;19914;-82
2022/10/19 07:32:42;;;;;;;;;;;11.50;71.60;;;;;;5015827;28;19917;-82
2022/10/19 07:35:08;;;;;;;;;;;11.50;71.60;;;;;;5015884;28;19913;-82
2022/10/19 07:37:33;;;;;;;;;;;11.40;71.50;;;;;;5032228;28;19924;-81
2022/10/19 07:39:59;;;;;;;;;;;11.50;71.60;;;;;;5032397;28;19917;-82
2022/10/19 07:42:24;;;;;;;;;;;11.50;71.60;;;;;;5015678;28;20354;-82
2022/10/19 07:44:50;;;;;;;;;;;11.50;71.60;;;;;;5035779;28;20384;-82
2022/10/19 07:47:15;;;;;;;;;;;11.50;71.60;;;;;;5035733;28;19920;-82
2022/10/19 07:49:41;;;;;;;;;;;11.50;71.60;;;;;;5018905;28;19913;-81
2022/10/19 07:52:07;;;;;;;;;;;11.50;71.60;;;;;;5035590;28;19952;-82
2022/10/19 07:54:32;;;;;;;;;;;11.50;71.60;;;;;;5019557;28;19963;-82
2022/10/19 07:56:58;;;;;;;;;;;11.50;71.70;;;;;;5036314;28;19921;-82
2022/10/19 07:59:23;;;;;;;;;;;11.50;71.70;;;;;;5019851;28;19920;-82
2022/10/19 08:01:49;;;;;;;;;;;11.50;71.70;;;;;;5019609;28;19921;-82
2022/10/19 08:04:15;;;;;;;;;;;11.60;71.70;;;;;;5035158;28;19918;-82
2022/10/19 08:06:41;;;;;;;;;;;11.60;71.70;;;;;;5035470;28;19932;-81
2022/10/19 08:09:06;;;;;;;;;;;11.60;71.80;;;;;;5035337;28;20258;-82
2022/10/19 08:11:33;;;;;;;;;;;11.60;71.70;;;;;;5035298;28;19917;-83
2022/10/19 08:14:01;;;;;;;;;;;11.60;71.70;;;;;;5035829;28;19916;-83
2022/10/19 08:16:33;;;;;;;;;;;11.60;71.80;;;;;;5051809;28;19913;-81
2022/10/19 08:19:00;;;;;;;;;;;11.60;71.80;;;;;;5052327;28;20369;-83
2022/10/19 08:21:26;;;;;;;;;;;11.70;71.80;;;;;;5035641;28;20318;-82
2022/10/19 08:23:52;;;;;;;;;;;11.70;71.80;;;;;;5052845;28;19927;-83
2022/10/19 08:26:17;;;;;;;;;;;11.70;71.80;;;;;;5035496;28;20017;-82
2022/10/19 08:28:43;;;;;;;;;;;11.70;71.80;;;;;;5019062;28;19971;-83
2022/10/19 08:31:10;;;;;;;;;;;11.70;71.90;;;;;;5035289;28;20321;-83
2022/10/19 08:33:35;;;;;;;;;;;11.70;71.90;;;;;;5034547;28;19915;-82
2022/10/19 08:36:03;;;;;;;;;;;11.70;71.90;;;;;;5034840;28;20004;-83
2022/10/19 08:38:29;;;;;;;;;;;11.80;71.90;;;;;;5035316;28;19909;-83
2022/10/19 08:40:55;;;;;;;;;;;11.80;71.90;;;;;;5035267;28;19918;-83
2022/10/19 08:43:28;;;;;;;;;;;11.80;71.90;;;;;;5036554;28;19925;-84
2022/10/19 08:45:57;;;;;;;;;;;11.80;72.00;;;;;;5035257;28;19971;-83
2022/10/19 08:48:26;;;;;;;;;;;11.80;71.90;;;;;;5051677;28;19905;-84
2022/10/19 08:50:52;;;;;;;;;;;11.90;72.00;;;;;;5035102;28;19920;-84
2022/10/19 08:53:25;;;;;;;;;;;11.90;72.00;;;;;;5035633;28;20357;-83
2022/10/19 08:55:54;;;;;;;;;;;11.90;72.00;;;;;;5036072;28;20004;-84
2022/10/19 08:58:29;;;;;;;;;;;12.00;72.00;;;;;;5051984;28;19914;-85
2022/10/19 09:01:07;;;;;;;;;;;12.00;72.00;;;;;;5051827;28;19995;-84
2022/10/19 09:03:54;;;;;;;;;;;12.00;72.00;;;;;;5031935;28;19917;-83
2022/10/19 09:06:56;;;;;;;;;;;12.10;72.00;;;;;;5034825;28;19989;-83
2022/10/19 09:09:22;;;;;;;;;;;12.10;72.00;;;;;;4961816;28;19961;-84
2022/10/19 09:11:50;;;;;;;;;;;12.10;72.00;;;;;;5022378;28;19909;-84
2022/10/19 09:14:15;;;;;;;;;;;12.20;72.00;;;;;;5034829;28;19913;-83
2022/10/19 09:16:41;;;;;;;;;;;12.20;72.00;;;;;;5051624;28;19933;-84
2022/10/19 09:19:12;;;;;;;;;;;12.20;72.00;;;;;;5034811;28;19917;-84
2022/10/19 09:21:57;;;;;;;;;;;12.30;72.00;;;;;;5034584;28;20000;-84
2022/10/19 09:24:34;;;;;;;;;;;12.30;72.00;;;;;;5035783;28;19917;-83
2022/10/19 09:27:00;;;;;;;;;;;12.40;72.00;;;;;;5034723;28;19924;-84
2022/10/19 09:29:43;;;;;;;;;;;12.40;71.90;;;;;;5034821;28;20453;-84
2022/10/19 09:32:13;;;;;;;;;;;12.50;72.00;;;;;;5051122;28;19924;-84
2022/10/19 09:34:48;;;;;;;;;;;12.50;71.90;;;;;;5034264;28;19917;-84
2022/10/19 09:37:14;;;;;;;;;;;12.50;71.90;;;;;;5034265;28;20340;-85
2022/10/19 09:39:40;;;;;;;;;;;12.60;71.90;;;;;;5017714;28;19936;-83
2022/10/19 09:42:12;;;;;;;;;;;12.70;71.90;;;;;;5034517;28;20004;-84
2022/10/19 09:44:37;;;;;;;;;;;12.70;71.80;;;;;;5034704;28;19921;-82
2022/10/19 09:47:06;;;;;;;;;;;12.80;71.80;;;;;;5017455;28;19917;-83
2022/10/19 09:49:38;;;;;;;;;;;12.90;71.80;;;;;;5050493;28;19913;-85
2022/10/19 09:52:03;;;;;;;;;;;12.90;71.80;;;;;;5035072;28;19909;-83
2022/10/19 09:54:34;;;;;;;;;;;13.00;71.80;;;;;;5035049;28;19968;-86
2022/10/19 09:57:00;;;;;;;;;;;13.00;71.80;;;;;;5050894;28;20264;-85
2022/10/19 09:59:28;;;;;;;;;;;13.10;71.70;;;;;;5018174;28;19928;-84
2022/10/19 10:02:03;;;;;;;;;;;13.10;71.70;;;;;;5050469;28;19913;-83
2022/10/19 10:04:35;;;;;;;;;;;13.20;71.70;;;;;;5050303;28;19939;-86
2022/10/19 10:07:02;;;;;;;;;;;13.20;71.70;;;;;;5033734;28;19970;-85
2022/10/19 10:09:28;;;;;;;;;;;13.30;71.70;;;;;;5033986;28;19964;-86
2022/10/19 10:11:55;;;;;;;;;;;13.40;71.70;;;;;;5033767;28;19990;-84
2022/10/19 10:14:38;;;;;;;;;;;13.40;71.60;;;;;;5033483;28;19971;-84
2022/10/19 10:17:10;;;;;;;;;;;13.50;71.70;;;;;;5033479;28;19913;-85
2022/10/19 10:19:47;;;;;;;;;;;13.50;71.70;;;;;;5049609;28;19913;-82
2022/10/19 10:22:23;;;;;;;;;;;13.60;71.70;;;;;;5049532;28;19913;-82
2022/10/19 10:24:53;;;;;;;;;;;13.60;71.60;;;;;;5033015;28;19917;-85
2022/10/19 10:27:31;;;;;;;;;;;13.70;71.60;;;;;;5033231;28;19976;-83
2022/10/19 10:29:56;;;;;;;;;;;13.70;71.60;;;;;;5049403;28;20428;-83
2022/10/19 10:32:22;;;;;;;;;;;13.80;71.60;;;;;;5032982;28;19913;-84
2022/10/19 10:34:55;;;;;;;;;;;13.80;72.20;;;;;;5034328;28;20366;-85
2022/10/19 10:37:23;;;;;;;;;;;13.80;71.60;;;;;;5033415;28;19963;-85
2022/10/19 10:39:53;;;;;;;;;;;13.90;71.60;;;;;;5033387;28;19940;-87
2022/10/19 10:42:20;;;;;;;;;;;13.90;71.60;;;;;;5050597;28;20301;-84
2022/10/19 10:44:50;;;;;;;;;;;14.00;71.60;;;;;;5049581;28;19917;-84
2022/10/19 10:47:17;;;;;;;;;;;13.90;71.50;;;;;;5033138;28;19917;-85
2022/10/19 10:49:42;;;;;;;;;;;14.00;71.60;;;;;;5033916;28;19913;-85
2022/10/19 10:52:09;;;;;;;;;;;14.10;71.60;;;;;;5016741;28;20457;-85
2022/10/19 10:54:35;;;;;;;;;;;14.10;71.60;;;;;;5033141;28;20387;-84
2022/10/19 10:57:04;;;;;;;;;;;14.10;71.60;;;;;;5016270;28;19935;-84
2022/10/19 10:59:32;;;;;;;;;;;14.20;71.70;;;;;;5032719;28;20030;-83
2022/10/19 11:02:10;;;;;;;;;;;14.20;71.60;;;;;;5032727;28;19962;-83
2022/10/19 11:04:38;;;;;;;;;;;14.20;71.70;;;;;;5049741;28;20017;-85
2022/10/19 11:07:11;;;;;;;;;;;14.20;71.60;;;;;;5032836;28;19917;-85
2022/10/19 11:09:40;;;;;;;;;;;14.30;71.70;;;;;;5033122;28;20031;-85
2022/10/19 11:12:10;;;;;;;;;;;14.30;71.70;;;;;;5033832;28;19943;-85
2022/10/19 11:14:39;;;;;;;;;;;14.30;71.60;;;;;;5050117;28;19998;-84
2022/10/19 11:17:06;;;;;;;;;;;14.40;71.70;;;;;;5032451;28;19916;-85
2022/10/19 11:19:34;;;;;;;;;;;14.40;71.70;;;;;;5036354;28;19914;-85
2022/10/19 11:22:15;;;;;;;;;;;14.40;71.70;;;;;;5036541;28;19916;-85
2022/10/19 11:24:52;;;;;;;;;;;14.40;71.70;;;;;;5053136;28;19924;-85
2022/10/19 11:27:30;;;;;;;;;;;14.50;71.70;;;;;;5053689;28;19917;-85
2022/10/19 11:30:22;;;;;;;;;;;14.50;71.70;;;;;;5036756;28;19956;-85
2022/10/19 11:32:51;;;;;;;;;;;14.50;72.30;;;;;;5033595;28;19956;-85
2022/10/19 11:35:35;;;;;;;;;;;14.50;71.70;;;;;;5036813;28;20020;-85
2022/10/19 11:38:07;;;;;;;;;;;14.50;71.70;;;;;;5053013;28;19913;-85
2022/10/19 11:40:38;;;;;;;;;;;14.60;71.70;;;;;;5036825;28;19913;-84
2022/10/19 11:43:11;;;;;;;;;;;14.60;71.70;;;;;;5037091;28;19921;-84
2022/10/19 11:45:52;;;;;;;;;;;14.60;72.30;;;;;;5037016;28;19924;-84
2022/10/19 11:48:17;;;;;;;;;;;14.60;71.70;;;;;;5037304;28;19917;-84
2022/10/19 11:50:47;;;;;;;;;;;14.70;71.70;;;;;;5053140;28;19917;-84
2022/10/19 11:53:32;;;;;;;;;;;14.70;71.70;;;;;;5036317;28;19921;-84
2022/10/19 11:56:09;;;;;;;;;;;14.70;71.70;;;;;;5036006;28;19962;-84
2022/10/19 11:58:34;;;;;;;;;;;14.70;71.60;;;;;;5036002;28;20373;-83
2022/10/19 12:01:10;;;;;;;;;;;14.70;71.60;;;;;;5053147;28;19905;-84
2022/10/19 12:03:50;;;;;;;;;;;14.80;71.70;;;;;;5035640;28;20354;-83
2022/10/19 12:06:15;;;;;;;;;;;14.80;71.70;;;;;;5036326;28;19917;-84
2022/10/19 12:08:56;;;;;;;;;;;14.80;71.60;;;;;;5037559;28;20368;-84
2022/10/19 12:11:22;;;;;;;;;;;14.90;71.70;;;;;;5052710;28;19920;-84
2022/10/19 12:13:50;;;;;;;;;;;14.80;71.60;;;;;;5037494;28;19913;-84
2022/10/19 12:16:16;;;;;;;;;;;14.90;71.60;;;;;;5036969;28;19912;-84
2022/10/19 12:18:44;;;;;;;;;;;14.90;71.60;;;;;;5035836;28;20262;-83
2022/10/19 12:21:18;;;;;;;;;;;14.90;71.60;;;;;;5037331;28;19996;-84
2022/10/19 12:23:45;;;;;;;;;;;15.00;71.60;;;;;;5036853;28;19923;-84
2022/10/19 12:26:15;;;;;;;;;;;15.00;71.60;;;;;;5035386;28;19921;-84
2022/10/19 12:28:43;;;;;;;;;;;15.00;71.60;;;;;;5035449;28;19920;-84
2022/10/19 12:31:09;;;;;;;;;;;15.00;71.60;;;;;;5034731;28;20372;-84
2022/10/19 12:33:35;;;;;;;;;;;15.00;71.50;;;;;;5036329;28;19961;-84
2022/10/19 12:36:05;;;;;;;;;;;15.10;71.60;;;;;;5052576;28;20354;-84
2022/10/19 12:38:49;;;;;;;;;;;15.10;71.60;;;;;;5035565;28;19916;-84
2022/10/19 12:41:22;;;;;;;;;;;15.10;71.60;;;;;;5035399;28;20277;-83
2022/10/19 12:44:06;;;;;;;;;;;15.10;71.60;;;;;;5035046;28;20008;-84
2022/10/19 12:46:52;;;;;;;;;;;15.10;71.50;;;;;;5036059;28;19913;-85
2022/10/19 12:49:24;;;;;;;;;;;15.20;71.60;;;;;;5017992;28;20346;-85
2022/10/19 12:51:50;;;;;;;;;;;15.10;71.50;;;;;;5036048;28;19913;-84
2022/10/19 12:54:20;;;;;;;;;;;15.20;71.50;;;;;;5018635;28;20358;-84
2022/10/19 12:56:48;;;;;;;;;;;15.20;71.50;;;;;;5036157;28;19913;-85
2022/10/19 12:59:40;;;;;;;;;;;15.20;71.50;;;;;;5051356;28;19983;-83
2022/10/19 13:02:21;;;;;;;;;;;15.20;71.50;;;;;;5015264;28;19952;-84
2022/10/19 13:04:51;;;;;;;;;;;15.20;71.50;;;;;;5035003;28;19983;-84
2022/10/19 13:07:17;;;;;;;;;;;15.20;71.40;;;;;;5034856;28;20012;-83
2022/10/19 13:09:43;;;;;;;;;;;15.30;71.50;;;;;;5034826;28;19952;-84
2022/10/19 13:12:12;;;;;;;;;;;15.30;71.50;;;;;;5051506;28;20366;-84
2022/10/19 13:14:46;;;;;;;;;;;15.30;71.40;;;;;;5034811;28;19936;-84
2022/10/19 13:17:49;;;;;;;;;;;15.30;71.40;;;;;;5034895;28;19967;-85
2022/10/19 13:20:15;;;;;;;;;;;15.30;71.40;;;;;;5018131;28;19917;-85
2022/10/19 13:22:44;;;;;;;;;;;15.40;71.40;;;;;;5051515;28;20016;-85
2022/10/19 13:25:18;;;;;;;;;;;15.40;71.50;;;;;;5035887;28;19978;-85
2022/10/19 13:27:48;;;;;;;;;;;15.40;71.40;;;;;;5051207;28;19985;-84
2022/10/19 13:30:32;;;;;;;;;;;15.40;71.40;;;;;;5051009;28;19913;-85
2022/10/19 13:32:58;;;;;;;;;;;15.40;71.40;;;;;;5034375;28;20008;-84
2022/10/19 13:35:23;;;;;;;;;;;15.40;71.40;;;;;;5017873;28;19952;-85
2022/10/19 13:38:07;;;;;;;;;;;15.40;71.40;;;;;;5051077;28;19913;-85
2022/10/19 13:40:35;;;;;;;;;;;15.40;71.40;;;;;;5051360;28;19914;-84
2022/10/19 13:43:00;;;;;;;;;;;15.40;71.30;;;;;;5034088;28;19928;-84
2022/10/19 13:45:26;;;;;;;;;;;15.50;71.40;;;;;;5034230;28;19921;-84
2022/10/19 13:47:58;;;;;;;;;;;15.50;71.30;;;;;;5017439;28;19914;-85
2022/10/19 13:50:29;;;;;;;;;;;15.50;71.30;;;;;;5035411;28;19917;-84
2022/10/19 13:52:58;;;;;;;;;;;15.50;71.30;;;;;;5034409;28;19913;-84
2022/10/19 13:55:27;;;;;;;;;;;15.50;71.20;;;;;;5050762;28;19916;-83
2022/10/19 13:57:52;;;;;;;;;;;15.50;71.20;;;;;;5050573;28;19928;-84
2022/10/19 14:00:22;;;;;;;;;;;15.50;71.20;;;;;;5034706;28;19992;-84
2022/10/19 14:03:07;;;;;;;;;;;15.50;71.20;;;;;;5035827;28;19914;-85
2022/10/19 14:05:32;;;;;;;;;;;15.60;71.20;;;;;;5050647;28;19920;-85
2022/10/19 14:08:16;;;;;;;;;;;15.60;71.20;;;;;;5033932;28;19910;-85
2022/10/19 14:10:45;;;;;;;;;;;15.60;71.10;;;;;;5051220;28;19940;-83
2022/10/19 14:13:12;;;;;;;;;;;15.60;71.10;;;;;;5033496;28;19915;-84
2022/10/19 14:15:38;;;;;;;;;;;15.60;71.80;;;;;;5033871;28;19916;-84
2022/10/19 14:18:20;;;;;;;;;;;15.60;71.10;;;;;;5033539;28;20259;-85
2022/10/19 14:20:54;;;;;;;;;;;15.60;71.10;;;;;;5033974;28;19913;-85
2022/10/19 14:23:24;;;;;;;;;;;15.60;71.10;;;;;;5033945;28;19924;-86
2022/10/19 14:25:52;;;;;;;;;;;15.60;71.00;;;;;;5033518;28;19932;-84